createdAt,value
2022-10-18T00:01:45.610Z,28.73
2022-10-18T00:04:13.668Z,28.66
2022-10-18T00:06:43.540Z,28.60
2022-10-18T00:09:12.366Z,28.81
2022-10-18T00:11:40.630Z,28.80
2022-10-18T00:14:08.664Z,29.16
2022-10-18T00:16:36.617Z,29.62
2022-10-18T00:19:06.009Z,29.83
2022-10-18T00:21:34.088Z,30.09
2022-10-18T00:24:02.465Z,29.90
2022-10-18T00:26:31.994Z,29.72
2022-10-18T00:29:01.958Z,29.71
2022-10-18T00:31:32.231Z,30.08
2022-10-18T00:34:01.301Z,30.02
2022-10-18T00:36:32.518Z,29.48
2022-10-18T00:39:00.977Z,29.52
2022-10-18T00:41:30.493Z,29.49
2022-10-18T00:44:00.717Z,29.69
2022-10-18T00:46:30.733Z,29.97
2022-10-18T00:49:01.341Z,29.64
2022-10-18T00:51:34.570Z,29.62
2022-10-18T00:54:02.590Z,29.40
2022-10-18T00:56:30.881Z,28.48
2022-10-18T00:58:58.838Z,28.37
2022-10-18T01:01:28.459Z,27.72
2022-10-18T01:03:57.728Z,27.83
2022-10-18T01:06:28.183Z,28.04
2022-10-18T01:09:16.221Z,26.95
2022-10-18T01:12:00.296Z,27.61
2022-10-18T01:14:44.807Z,26.99
2022-10-18T01:17:16.931Z,26.40
2022-10-18T01:20:16.559Z,26.14
2022-10-18T01:22:46.247Z,26.59
2022-10-18T01:25:27.674Z,26.40
2022-10-18T01:27:59.618Z,26.61
2022-10-18T01:30:44.737Z,25.46
2022-10-18T01:33:18.551Z,26.04
2022-10-18T01:35:50.269Z,26.32
2022-10-18T01:38:20.297Z,25.98
2022-10-18T01:40:50.397Z,25.43
2022-10-18T01:43:18.717Z,25.52
2022-10-18T01:45:48.717Z,25.65
2022-10-18T01:48:17.797Z,24.71
2022-10-18T01:50:45.754Z,24.75
2022-10-18T01:53:24.538Z,25.71
2022-10-18T01:55:58.038Z,25.71
2022-10-18T01:58:30.360Z,26.61
2022-10-18T02:01:05.257Z,26.47
2022-10-18T02:03:34.623Z,25.66
2022-10-18T02:06:07.269Z,25.47
2022-10-18T02:08:38.372Z,25.82
2022-10-18T02:11:08.073Z,26.64
2022-10-18T02:13:40.292Z,25.84
2022-10-18T02:16:13.750Z,26.53
2022-10-18T02:18:46.088Z,26.76
2022-10-18T02:21:17.054Z,25.37
2022-10-18T02:23:45.787Z,25.75
2022-10-18T02:26:14.851Z,27.36
2022-10-18T02:28:42.976Z,27.17
2022-10-18T02:31:16.811Z,26.36
2022-10-18T02:33:48.307Z,26.23
2022-10-18T02:36:20.217Z,27.02
2022-10-18T02:38:48.762Z,27.08
2022-10-18T02:41:24.251Z,26.19
2022-10-18T02:43:52.128Z,25.26
2022-10-18T02:46:21.597Z,25.01
2022-10-18T02:48:50.341Z,25.27
2022-10-18T02:51:18.943Z,26.35
2022-10-18T02:53:46.944Z,26.75
2022-10-18T02:56:14.842Z,26.40
2022-10-18T02:58:42.648Z,26.27
2022-10-18T03:01:10.935Z,27.04
2022-10-18T03:03:40.571Z,26.03
2022-10-18T03:06:08.715Z,26.34
2022-10-18T03:08:37.188Z,25.55
2022-10-18T03:11:06.175Z,26.54
2022-10-18T03:13:35.046Z,25.89
2022-10-18T03:16:03.536Z,26.58
2022-10-18T03:18:31.612Z,26.51
2022-10-18T03:21:01.039Z,25.29
2022-10-18T03:23:28.959Z,24.17
2022-10-18T03:25:56.829Z,25.19
2022-10-18T03:28:25.105Z,25.28
2022-10-18T03:30:53.182Z,24.43
2022-10-18T03:33:21.264Z,25.06
2022-10-18T03:35:50.119Z,25.00
2022-10-18T03:38:20.687Z,25.69
2022-10-18T03:40:49.011Z,26.52
2022-10-18T03:43:16.966Z,26.55
2022-10-18T03:45:44.955Z,26.76
2022-10-18T03:48:13.482Z,28.25
2022-10-18T03:50:41.571Z,27.31
2022-10-18T03:53:10.109Z,27.75
2022-10-18T03:55:39.950Z,26.29
2022-10-18T03:58:08.365Z,27.11
2022-10-18T04:00:36.582Z,27.98
2022-10-18T04:03:04.735Z,27.73
2022-10-18T04:05:32.768Z,28.10
2022-10-18T04:08:00.825Z,27.05
2022-10-18T04:10:28.877Z,27.55
2022-10-18T04:12:58.601Z,28.24
2022-10-18T04:15:26.597Z,27.84
2022-10-18T04:17:54.666Z,28.43
2022-10-18T04:20:22.949Z,28.19
2022-10-18T04:22:51.666Z,28.71
2022-10-18T04:25:19.777Z,28.59
2022-10-18T04:27:47.668Z,27.94
2022-10-18T04:30:17.557Z,28.56
2022-10-18T04:32:45.589Z,28.28
2022-10-18T04:35:13.612Z,28.32
2022-10-18T04:37:43.413Z,28.48
2022-10-18T04:40:12.289Z,28.61
2022-10-18T04:42:40.737Z,28.92
2022-10-18T04:45:09.787Z,29.25
2022-10-18T04:47:39.754Z,29.24
2022-10-18T04:50:12.506Z,29.35
2022-10-18T04:52:40.744Z,29.35
2022-10-18T04:55:11.229Z,28.50
2022-10-18T04:57:39.219Z,28.77
2022-10-18T05:00:08.350Z,28.68
2022-10-18T05:02:38.543Z,28.83
2022-10-18T05:05:11.730Z,28.29
2022-10-18T05:07:42.266Z,28.26
2022-10-18T05:10:12.111Z,28.40
2022-10-18T05:12:40.250Z,27.75
2022-10-18T05:15:08.773Z,28.19
2022-10-18T05:17:37.141Z,28.83
2022-10-18T05:20:09.844Z,28.06
2022-10-18T05:22:37.856Z,28.57
2022-10-18T05:25:06.342Z,28.88
2022-10-18T05:27:34.484Z,28.69
2022-10-18T05:30:05.360Z,28.19
2022-10-18T05:32:34.203Z,29.08
2022-10-18T05:35:03.575Z,28.67
2022-10-18T05:37:33.560Z,27.81
2022-10-18T05:40:01.958Z,27.79
2022-10-18T05:42:33.014Z,27.90
2022-10-18T05:45:01.886Z,28.04
2022-10-18T05:47:29.948Z,28.34
2022-10-18T05:49:58.764Z,28.34
2022-10-18T05:52:27.002Z,28.33
2022-10-18T05:54:57.128Z,28.46
2022-10-18T05:57:25.238Z,28.43
2022-10-18T05:59:53.623Z,28.21
2022-10-18T06:02:21.748Z,28.16
2022-10-18T06:04:50.154Z,27.85
2022-10-18T06:07:18.212Z,26.99
2022-10-18T06:09:46.479Z,25.42
2022-10-18T06:12:15.888Z,26.74
2022-10-18T06:14:45.322Z,27.56
2022-10-18T06:17:13.773Z,28.03
2022-10-18T06:19:44.852Z,25.89
2022-10-18T06:22:14.757Z,26.73
2022-10-18T06:24:45.957Z,25.95
2022-10-18T06:27:15.703Z,26.64
2022-10-18T06:32:37.443Z,28.08
2022-10-18T06:35:06.222Z,28.53
2022-10-18T06:37:36.474Z,26.80
2022-10-18T06:40:05.277Z,26.67
2022-10-18T06:42:35.662Z,27.03
2022-10-18T06:45:03.707Z,26.88
2022-10-18T06:47:31.781Z,27.20
2022-10-18T06:50:00.099Z,27.38
2022-10-18T06:52:29.155Z,28.16
2022-10-18T06:54:57.660Z,24.59
2022-10-18T06:57:26.092Z,25.19
2022-10-18T06:59:56.048Z,26.94
2022-10-18T07:02:24.101Z,27.32
2022-10-18T07:04:52.442Z,28.34
2022-10-18T07:07:21.289Z,28.45
2022-10-18T07:09:51.995Z,27.80
2022-10-18T07:12:20.075Z,27.04
2022-10-18T07:14:51.078Z,27.64
2022-10-18T07:17:20.963Z,27.78
2022-10-18T07:19:54.778Z,28.14
2022-10-18T07:22:30.059Z,28.00
2022-10-18T07:24:58.931Z,26.88
2022-10-18T07:27:27.493Z,28.00
2022-10-18T07:30:01.398Z,27.81
2022-10-18T07:32:38.459Z,27.44
2022-10-18T07:35:07.717Z,27.37
2022-10-18T07:37:37.675Z,26.65
2022-10-18T07:40:12.603Z,26.96
2022-10-18T07:42:41.399Z,26.96
2022-10-18T07:45:11.963Z,27.45
2022-10-18T07:47:42.574Z,27.77
2022-10-18T07:50:11.725Z,27.88
2022-10-18T07:52:41.239Z,28.25
2022-10-18T07:55:09.902Z,27.93
2022-10-18T07:57:40.111Z,28.23
2022-10-18T08:00:09.563Z,27.57
2022-10-18T08:02:41.563Z,27.02
2022-10-18T08:05:11.230Z,28.32
2022-10-18T08:07:39.819Z,27.95
2022-10-18T08:10:08.581Z,28.47
2022-10-18T08:12:37.630Z,27.80
2022-10-18T08:15:06.701Z,28.05
2022-10-18T08:17:35.715Z,27.51
2022-10-18T08:20:12.371Z,26.73
2022-10-18T08:22:59.750Z,27.85
2022-10-18T08:25:29.360Z,28.51
2022-10-18T08:27:57.780Z,28.14
2022-10-18T08:30:26.350Z,28.38
2022-10-18T08:32:54.743Z,27.70
2022-10-18T08:35:26.297Z,27.68
2022-10-18T08:37:54.531Z,28.22
2022-10-18T08:40:24.270Z,28.46
2022-10-18T08:43:00.782Z,28.87
2022-10-18T08:45:42.094Z,28.62
2022-10-18T08:48:23.613Z,28.49
2022-10-18T08:50:55.868Z,28.23
2022-10-18T08:53:29.311Z,28.18
2022-10-18T08:56:02.885Z,28.17
2022-10-18T08:58:33.620Z,28.13
2022-10-18T09:01:12.135Z,27.70
2022-10-18T09:03:53.756Z,27.88
2022-10-18T09:06:27.086Z,25.17
2022-10-18T09:09:05.263Z,26.35
2022-10-18T09:11:45.344Z,26.09
2022-10-18T09:14:34.665Z,27.23
2022-10-18T09:17:14.994Z,26.96
2022-10-18T09:19:55.864Z,27.08
2022-10-18T09:22:31.292Z,27.43
2022-10-18T09:25:08.951Z,27.41
2022-10-18T09:27:43.069Z,27.71
2022-10-18T09:30:18.587Z,28.03
2022-10-18T09:32:49.978Z,28.07
2022-10-18T09:35:21.867Z,28.17
2022-10-18T09:37:52.829Z,27.57
2022-10-18T09:40:24.691Z,27.91
2022-10-18T09:42:58.911Z,28.31
2022-10-18T09:45:34.399Z,28.09
2022-10-18T09:48:08.658Z,27.30
2022-10-18T09:50:43.379Z,27.61
2022-10-18T09:53:23.405Z,27.68
2022-10-18T09:56:02.204Z,27.01
2022-10-18T09:58:45.034Z,27.72
2022-10-18T10:01:15.871Z,27.64
2022-10-18T10:03:44.727Z,27.32
2022-10-18T10:06:34.691Z,26.93
2022-10-18T10:09:09.264Z,27.43
2022-10-18T10:11:40.336Z,27.50
2022-10-18T10:16:49.180Z,27.51
2022-10-18T10:19:22.687Z,28.74
2022-10-18T10:21:55.082Z,26.94
2022-10-18T10:24:34.866Z,28.04
2022-10-18T10:27:11.664Z,28.07
2022-10-18T10:29:58.820Z,28.18
2022-10-18T10:32:34.634Z,28.13
2022-10-18T10:35:03.295Z,27.99
2022-10-18T10:37:36.637Z,28.58
2022-10-18T10:40:35.061Z,28.83
2022-10-18T10:43:33.055Z,28.09
2022-10-18T10:46:07.644Z,28.82
2022-10-18T10:49:04.108Z,29.47
2022-10-18T10:51:50.567Z,28.53
2022-10-18T10:54:28.724Z,28.35
2022-10-18T10:57:00.964Z,28.57
2022-10-18T10:59:34.870Z,28.48
2022-10-18T11:02:22.920Z,26.72
2022-10-18T11:04:52.278Z,26.97
2022-10-18T11:07:25.243Z,26.20
2022-10-18T11:10:01.256Z,25.82
2022-10-18T11:12:36.138Z,27.94
2022-10-18T11:15:24.718Z,28.25
2022-10-18T11:18:03.164Z,28.54
2022-10-18T11:20:36.335Z,28.55
2022-10-18T11:23:07.732Z,28.41
2022-10-18T11:25:53.488Z,28.33
2022-10-18T11:28:45.099Z,27.03
2022-10-18T11:31:17.866Z,27.22
2022-10-18T11:34:14.838Z,26.72
2022-10-18T11:37:15.866Z,26.25
2022-10-18T11:40:02.111Z,25.99
2022-10-18T11:42:40.001Z,27.39
2022-10-18T11:45:32.439Z,26.44
2022-10-18T11:48:06.664Z,25.97
2022-10-18T11:50:41.360Z,27.38
2022-10-18T11:53:15.823Z,28.08
2022-10-18T11:55:52.088Z,26.01
2022-10-18T11:58:31.190Z,27.32
2022-10-18T12:01:07.163Z,26.90
2022-10-18T12:03:41.475Z,26.33
2022-10-18T12:06:15.263Z,27.02
2022-10-18T12:08:46.028Z,27.86
2022-10-18T12:11:16.839Z,26.50
2022-10-18T12:13:49.057Z,27.32
2022-10-18T12:16:45.564Z,28.43
2022-10-18T12:19:16.484Z,27.47
2022-10-18T12:21:45.652Z,27.04
2022-10-18T12:24:22.654Z,26.37
2022-10-18T12:26:53.871Z,27.74
2022-10-18T12:29:29.325Z,26.68
2022-10-18T12:32:10.619Z,26.74
2022-10-18T12:34:57.247Z,25.12
2022-10-18T12:37:59.480Z,25.51
2022-10-18T12:40:35.455Z,25.43
2022-10-18T12:43:12.918Z,26.41
2022-10-18T12:45:50.898Z,25.83
2022-10-18T12:48:31.623Z,26.06
2022-10-18T12:51:02.983Z,26.97
2022-10-18T12:53:37.211Z,27.33
2022-10-18T12:56:42.421Z,27.61
2022-10-18T12:59:54.820Z,27.93
2022-10-18T13:02:32.772Z,25.29
2022-10-18T13:05:52.194Z,26.36
2022-10-18T13:08:48.504Z,26.66
2022-10-18T13:11:40.627Z,26.44
2022-10-18T13:14:19.413Z,26.76
2022-10-18T13:16:55.523Z,26.09
2022-10-18T13:19:32.160Z,27.80
2022-10-18T13:22:20.066Z,26.58
2022-10-18T13:25:01.744Z,26.07
2022-10-18T13:27:39.498Z,27.06
2022-10-18T13:30:37.565Z,26.25
2022-10-18T13:33:19.109Z,27.28
2022-10-18T13:36:10.416Z,27.20
2022-10-18T13:39:02.209Z,26.71
2022-10-18T13:41:35.347Z,26.33
2022-10-18T13:44:29.188Z,25.74
2022-10-18T13:47:12.521Z,26.52
2022-10-18T13:50:28.208Z,28.61
2022-10-18T13:53:10.647Z,26.92
2022-10-18T13:55:56.286Z,27.58
2022-10-18T13:58:32.138Z,27.43
2022-10-18T14:01:11.541Z,27.40
2022-10-18T14:04:14.499Z,27.96
2022-10-18T14:06:45.110Z,27.71
2022-10-18T14:09:48.668Z,26.68
2022-10-18T14:12:20.892Z,27.31
2022-10-18T14:15:04.214Z,26.44
2022-10-18T14:17:43.335Z,25.27
2022-10-18T14:20:28.651Z,27.24
2022-10-18T14:23:09.469Z,28.35
2022-10-18T14:25:42.177Z,27.47
2022-10-18T14:28:54.940Z,29.37
2022-10-18T14:31:21.208Z,27.63
2022-10-18T14:33:58.081Z,26.26
2022-10-18T14:36:52.306Z,25.87
2022-10-18T14:39:28.361Z,27.88
2022-10-18T14:41:59.603Z,28.70
2022-10-18T14:44:35.256Z,27.91
2022-10-18T14:47:28.319Z,29.75
2022-10-18T14:50:11.972Z,31.77
2022-10-18T14:52:44.422Z,30.50
2022-10-18T14:55:19.636Z,31.67
2022-10-18T14:57:49.559Z,31.07
2022-10-18T15:00:38.829Z,32.65
2022-10-18T15:03:08.879Z,31.90
2022-10-18T15:05:37.768Z,32.85
2022-10-18T15:08:12.472Z,31.61
2022-10-18T15:10:41.212Z,28.73
2022-10-18T15:13:18.246Z,26.71
2022-10-18T15:15:50.210Z,28.57
2022-10-18T15:18:22.480Z,27.27
2022-10-18T15:21:10.024Z,25.92
2022-10-18T15:23:39.208Z,27.13
2022-10-18T15:26:15.189Z,26.59
2022-10-18T15:28:52.240Z,26.26
2022-10-18T15:31:38.931Z,27.42
2022-10-18T15:34:26.557Z,26.71
2022-10-18T15:37:20.562Z,26.53
2022-10-18T15:40:33.424Z,27.42
2022-10-18T15:43:10.270Z,27.30
2022-10-18T15:45:50.944Z,25.64
2022-10-18T15:48:24.246Z,25.30
2022-10-18T15:50:53.245Z,26.27
2022-10-18T15:53:27.033Z,26.76
2022-10-18T15:55:56.177Z,27.52
2022-10-18T15:58:25.698Z,26.69
2022-10-18T16:00:54.950Z,25.73
2022-10-18T16:03:24.954Z,26.98
2022-10-18T16:05:54.665Z,26.75
2022-10-18T16:08:24.711Z,26.39
2022-10-18T16:10:52.860Z,26.21
2022-10-18T16:13:21.069Z,25.51
2022-10-18T16:15:49.528Z,26.28
2022-10-18T16:18:19.269Z,26.60
2022-10-18T16:20:49.232Z,26.71
2022-10-18T16:23:19.013Z,26.38
2022-10-18T16:25:47.234Z,26.12
2022-10-18T16:28:16.844Z,25.28
2022-10-18T16:30:47.942Z,26.61
2022-10-18T16:33:19.222Z,26.67
2022-10-18T16:35:50.838Z,26.93
2022-10-18T16:38:25.403Z,26.97
2022-10-18T16:40:53.424Z,26.64
2022-10-18T16:43:21.341Z,25.92
2022-10-18T16:45:49.420Z,26.76
2022-10-18T16:48:17.747Z,26.25
2022-10-18T16:50:47.245Z,26.49
2022-10-18T16:53:16.879Z,26.29
2022-10-18T16:55:44.886Z,25.63
2022-10-18T16:58:17.782Z,25.07
2022-10-18T17:00:46.258Z,25.31
2022-10-18T17:03:14.366Z,25.76
2022-10-18T17:05:42.507Z,25.55
2022-10-18T17:08:18.859Z,25.29
2022-10-18T17:10:47.414Z,25.79
2022-10-18T17:13:15.306Z,25.55
2022-10-18T17:15:43.169Z,25.39
2022-10-18T17:18:15.117Z,24.99
2022-10-18T17:20:43.163Z,25.91
2022-10-18T17:23:11.291Z,25.73
2022-10-18T17:25:57.416Z,25.59
2022-10-18T17:28:31.564Z,25.42
2022-10-18T17:30:59.353Z,25.12
2022-10-18T17:33:27.064Z,25.91
2022-10-18T17:35:54.786Z,25.75
2022-10-18T17:38:22.509Z,25.12
2022-10-18T17:40:52.738Z,25.16
2022-10-18T17:43:20.612Z,24.42
2022-10-18T17:45:49.217Z,23.74
2022-10-18T17:48:17.995Z,24.69
2022-10-18T17:50:45.976Z,24.79
2022-10-18T17:53:13.918Z,24.39
2022-10-18T17:55:41.649Z,24.46
2022-10-18T17:58:10.808Z,24.63
2022-10-18T18:00:38.513Z,24.57
2022-10-18T18:03:06.362Z,25.06
2022-10-18T18:05:35.474Z,24.94
2022-10-18T18:08:04.275Z,25.12
2022-10-18T18:10:33.654Z,25.03
2022-10-18T18:13:02.192Z,25.10
2022-10-18T18:15:31.217Z,25.04
2022-10-18T18:17:59.024Z,24.68
2022-10-18T18:20:27.421Z,24.56
2022-10-18T18:22:55.358Z,24.81
2022-10-18T18:25:23.094Z,24.98
2022-10-18T18:27:51.038Z,24.42
2022-10-18T18:30:18.853Z,24.53
2022-10-18T18:32:47.911Z,24.25
2022-10-18T18:35:15.788Z,24.21
2022-10-18T18:37:43.541Z,23.82
2022-10-18T18:40:11.778Z,23.69
2022-10-18T18:42:39.491Z,23.58
2022-10-18T18:45:07.970Z,23.37
2022-10-18T18:47:36.306Z,23.28
2022-10-18T18:50:05.788Z,22.85
2022-10-18T18:52:33.842Z,23.15
2022-10-18T18:55:01.740Z,22.72
2022-10-18T18:57:29.485Z,22.99
2022-10-18T18:59:57.466Z,22.16
2022-10-18T19:02:25.233Z,22.58
2022-10-18T19:04:53.027Z,22.12
2022-10-18T19:07:22.114Z,21.25
2022-10-18T19:09:50.859Z,20.94
2022-10-18T19:12:20.622Z,22.06
2022-10-18T19:14:49.187Z,22.85
2022-10-18T19:17:17.031Z,22.40
2022-10-18T19:19:44.724Z,21.88
2022-10-18T19:22:12.401Z,21.63
2022-10-18T19:24:41.516Z,22.49
2022-10-18T19:27:12.361Z,21.67
2022-10-18T19:29:41.552Z,21.19
2022-10-18T19:32:12.075Z,21.32
2022-10-18T19:34:40.417Z,21.08
2022-10-18T19:37:09.375Z,22.31
2022-10-18T19:39:37.579Z,22.11
2022-10-18T19:42:14.603Z,22.96
2022-10-18T19:44:44.783Z,22.42
2022-10-18T19:47:14.045Z,22.11
2022-10-18T19:49:42.627Z,21.95
2022-10-18T19:52:13.499Z,22.17
2022-10-18T19:54:41.237Z,22.27
2022-10-18T19:57:10.219Z,22.20
2022-10-18T19:59:38.478Z,21.67
2022-10-18T20:02:06.246Z,22.21
2022-10-18T20:04:35.024Z,21.44
2022-10-18T20:07:03.521Z,20.84
2022-10-18T20:09:31.272Z,21.07
2022-10-18T20:11:59.598Z,21.51
2022-10-18T20:14:28.671Z,23.05
2022-10-18T20:16:56.400Z,22.43
2022-10-18T20:19:24.152Z,22.68
2022-10-18T20:21:51.850Z,21.60
2022-10-18T20:24:19.519Z,21.68
2022-10-18T20:26:47.266Z,21.44
2022-10-18T20:29:15.123Z,21.56
2022-10-18T20:31:44.240Z,21.16
2022-10-18T20:34:12.968Z,21.60
2022-10-18T20:36:41.318Z,21.97
2022-10-18T20:39:09.041Z,22.04
2022-10-18T20:41:38.928Z,21.62
2022-10-18T20:44:13.946Z,21.51
2022-10-18T20:46:42.148Z,21.17
2022-10-18T20:49:14.547Z,20.60
2022-10-18T20:51:42.765Z,20.92
2022-10-18T20:54:11.388Z,20.59
2022-10-18T20:56:39.852Z,20.74
2022-10-18T20:59:09.737Z,21.95
2022-10-18T21:01:38.956Z,21.30
2022-10-18T21:04:08.119Z,22.06
2022-10-18T21:06:40.162Z,20.32
2022-10-18T21:09:09.677Z,20.84
2022-10-18T21:11:39.216Z,19.41
2022-10-18T21:14:08.117Z,20.83
2022-10-18T21:16:36.942Z,20.72
2022-10-18T21:19:05.312Z,21.55
2022-10-18T21:21:33.476Z,21.15
2022-10-18T21:24:06.887Z,21.90
2022-10-18T21:26:36.190Z,21.75
2022-10-18T21:29:05.089Z,21.64
2022-10-18T21:31:34.852Z,21.19
2022-10-18T21:34:04.022Z,21.31
2022-10-18T21:36:33.383Z,21.35
2022-10-18T21:39:03.234Z,21.54
2022-10-18T21:41:32.100Z,21.24
2022-10-18T21:44:00.078Z,22.03
2022-10-18T21:46:28.658Z,21.48
2022-10-18T21:48:57.808Z,21.30
2022-10-18T21:51:26.786Z,21.59
2022-10-18T21:53:56.161Z,21.73
2022-10-18T21:56:26.967Z,21.57
2022-10-18T21:58:55.099Z,21.56
2022-10-18T22:01:24.983Z,21.19
2022-10-18T22:03:54.403Z,21.24
2022-10-18T22:06:22.615Z,20.47
2022-10-18T22:08:51.893Z,20.75
2022-10-18T22:11:21.555Z,20.76
2022-10-18T22:13:50.827Z,19.68
2022-10-18T22:16:18.719Z,20.31
2022-10-18T22:18:47.866Z,19.88
2022-10-18T22:21:17.958Z,19.39
2022-10-18T22:23:47.439Z,19.51
2022-10-18T22:26:16.778Z,19.79
2022-10-18T22:28:45.705Z,20.15
2022-10-18T22:31:19.849Z,20.49
2022-10-18T22:33:49.164Z,20.08
2022-10-18T22:36:16.858Z,20.21
2022-10-18T22:38:44.603Z,20.39
2022-10-18T22:41:13.215Z,20.04
2022-10-18T22:43:41.307Z,20.08
2022-10-18T22:46:10.544Z,20.45
2022-10-18T22:48:40.218Z,20.52
2022-10-18T22:51:08.355Z,20.39
2022-10-18T22:53:37.111Z,20.19
2022-10-18T22:56:05.704Z,20.27
2022-10-18T22:58:33.857Z,20.41
2022-10-18T23:01:06.253Z,20.26
2022-10-18T23:03:34.115Z,20.87
2022-10-18T23:06:03.815Z,20.46
2022-10-18T23:08:31.780Z,20.37
2022-10-18T23:11:00.716Z,19.98
2022-10-18T23:13:29.073Z,20.32
2022-10-18T23:16:04.574Z,20.30
2022-10-18T23:18:32.942Z,20.59
2022-10-18T23:21:06.153Z,20.27
2022-10-18T23:23:35.566Z,19.50
2022-10-18T23:26:05.018Z,20.31
2022-10-18T23:28:34.876Z,20.84
2022-10-18T23:31:07.666Z,20.66
2022-10-18T23:33:35.665Z,20.51
2022-10-18T23:36:04.925Z,19.84
2022-10-18T23:38:33.326Z,19.61
2022-10-18T23:41:01.415Z,20.31
2022-10-18T23:43:29.190Z,20.73
2022-10-18T23:45:56.939Z,20.94
2022-10-18T23:48:24.848Z,20.76
2022-10-18T23:50:52.886Z,20.50
2022-10-18T23:53:22.355Z,20.18
2022-10-18T23:55:53.438Z,20.63
2022-10-18T23:58:21.361Z,21.02
